createdAt,value
2019-05-20T00:09:58.823Z,53.2
2019-05-20T00:25:13.825Z,52.5
2019-05-20T00:40:32.575Z,52.1
2019-05-20T00:55:48.861Z,52.2
2019-05-20T01:11:05.940Z,52.3
2019-05-20T01:26:13.862Z,52.6
2019-05-20T01:41:38.832Z,52.6
2019-05-20T01:56:55.371Z,52.8
2019-05-20T02:12:11.990Z,53.8
2019-05-20T02:27:28.532Z,55.2
2019-05-20T02:42:41.744Z,55.5
2019-05-20T02:58:01.510Z,56.2
2019-05-20T03:13:17.730Z,57.5
2019-05-20T03:28:34.060Z,58.3
2019-05-20T03:43:39.578Z,58.9
2019-05-20T03:59:06.366Z,59.6
2019-05-20T04:14:22.867Z,60.2
2019-05-20T04:29:39.133Z,60.3
2019-05-20T04:44:55.633Z,59
2019-05-20T05:00:08.725Z,58.2
2019-05-20T05:15:29.013Z,54.9
2019-05-20T05:30:45.903Z,52.1
2019-05-20T05:46:02.830Z,53.2
2019-05-20T06:01:11.961Z,50.5
2019-05-20T06:16:38.084Z,38.5
2019-05-20T06:31:55.716Z,43.5
2019-05-20T06:47:13.313Z,43.9
2019-05-20T07:02:20.097Z,42.5
2019-05-20T07:17:49.354Z,41.8
2019-05-20T07:33:07.981Z,39.7
2019-05-20T07:48:26.458Z,37.5
2019-05-20T08:03:28.413Z,37.3
2019-05-20T08:19:00.404Z,37.6
2019-05-20T08:34:22.824Z,37.7
2019-05-20T08:49:42.996Z,37.5
2019-05-20T09:05:00.600Z,38.9
2019-05-20T09:20:07.505Z,39
2019-05-20T09:35:38.394Z,40.5
2019-05-20T09:50:57.217Z,40.1
2019-05-20T10:06:15.995Z,40.8
2019-05-20T10:21:34.990Z,46.3
2019-05-20T10:36:46.246Z,42
2019-05-20T10:52:11.843Z,40.8
2019-05-20T11:07:30.415Z,43.3
2019-05-20T11:22:48.824Z,46
2019-05-20T11:37:51.771Z,50.8
2019-05-20T11:53:23.607Z,54.3
2019-05-20T12:08:44.195Z,54.5
2019-05-20T12:24:02.318Z,55.4
2019-05-20T12:39:20.460Z,58.5
2019-05-20T12:54:29.003Z,61.4
2019-05-20T13:09:56.599Z,66.4
2019-05-20T13:25:14.326Z,69.5
2019-05-20T13:40:47.213Z,72.9
2019-05-20T13:55:49.589Z,73.7
2019-05-20T14:11:05.291Z,74.4
2019-05-20T14:26:24.774Z,72.7
2019-05-20T14:41:41.629Z,76.2
2019-05-20T14:56:58.256Z,78.9
2019-05-20T15:12:03.950Z,82
2019-05-20T15:27:31.459Z,83
2019-05-20T15:42:47.486Z,83.7
2019-05-20T15:58:04.181Z,82.9
2019-05-20T16:13:20.560Z,82.4
2019-05-20T16:28:34.404Z,78.5
2019-05-20T16:43:54.242Z,80.8
2019-05-20T16:59:10.878Z,80.4
2019-05-20T17:14:27.666Z,81.7
2019-05-20T17:29:35.076Z,78.7
2019-05-20T17:45:02.372Z,76.1
2019-05-20T18:00:21.234Z,74.5
2019-05-20T18:15:38.188Z,76.9
2019-05-20T18:30:55.356Z,76.2
2019-05-20T18:46:05.830Z,77.1
2019-05-20T19:01:28.955Z,78.6
2019-05-20T19:16:45.536Z,81
2019-05-20T19:32:02.726Z,81.8
2019-05-20T19:47:18.451Z,82.2
2019-05-20T20:02:33.656Z,85
2019-05-20T20:17:51.553Z,83.1
2019-05-20T20:33:08.142Z,83.8
2019-05-20T20:48:24.330Z,85.9
2019-05-20T21:03:30.143Z,87.3
2019-05-20T21:18:56.171Z,87.7
2019-05-20T21:34:12.058Z,88
2019-05-20T21:49:27.664Z,88
2019-05-20T22:04:43.796Z,88.4
2019-05-20T22:19:55.404Z,88.8
2019-05-20T22:35:14.399Z,89.2
2019-05-20T22:50:29.907Z,89.7
2019-05-20T23:05:45.232Z,90.2
2019-05-20T23:20:50.177Z,90.8
2019-05-20T23:36:15.780Z,91.2
2019-05-20T23:51:31.091Z,92.4
